Fort Worth Alliance Airport
KAFW : now visible

Airfield :











YOU CAN JOIN US ON...

 
LOGIN :

Register | Disclaimer

   EN    FR    IT 

 









Legend :    VFR   Marginal VFR   IFR   Intensive IFR   Very Intensive IFR
Visi :
Ceiling :
>= 8 km
>= 3000ft
5 to 8 km
1000 to 3000 ft
1500m to 5 km
500 to 1000 ft
800 to 1500m
200 to 500 ft
< 800m
< 200 ft
Symbols :   Thunderstorms  Fog  Heavy snow  Heavy precipitations  Wind > 20 kt







- Airport Elevation : 722 ft


KAFW - Fort Worth Alliance

CURRENT METAR :
  • 191453Z 04010KT 2SM BR OVC008 02/00 A3015 RMK AO2 CIG 004V011 SLP220 60000 T00170000 58010

EXPIRED METARs :
  • 191433Z 05008KT 2SM BR BKN009 OVC014 02/00 A3016 RMK AO2 CIG 006V013 T00170000
  • 191421Z 06010KT 2SM BR OVC013 02/00 A3016 RMK AO2 T00220000
  • 191402Z 06009KT 6SM HZ BKN014 OVC022 02/M01 A3017 RMK AO2 T00221011
  • 191353Z 06008KT 8SM SCT014 OVC022 02/M01 A3018 RMK AO2 RAB23E38 SLP229 P0000 T00221011
  • 191253Z 09008KT 10SM OVC026 04/M03 A3017 RMK AO2 SLP224 T00391033

TAF KAFW
Valid from the 19 at 15:00 until the 20 at 12:00 UTC


191502Z 1915/2012 07010KT 5SM BR OVC012
TEMPO 1915/1918 2SM -RA OVC008
FM191800 05009KT 3SM -RA BR OVC005
FM192100 03006KT 3SM -DZ BR OVC003
FM200500 30006KT 5SM BR OVC008
FM200900 29007KT P6SM OVC015
KZFW FIR / North America



MET'MAP, your aeronautical weather chart ! - Copyright ORBIFLY December 2007 - Disclaimer

ORBIFLY MET'MAP TEAM :

Programming & Development : Alexandra Zaïnal
Concept & Development : Baudouin d'Aumeries
Co-Development & Prog : Marc-Olivier Méhu
Technical & hardware support : Manuel Goepfert

Contact : metmap@orbifly.com




SOURCES & CREDITS :

   NOAA       Earth
Advisory